Aeroporto :
LOGIN :

Iscrizione | Disclaimer

   EN    FR    IT 

 










Sommario :    VFR   VFR Marginale   IFR   IFR Intensivo   IFR Molto Intensivo
Visibilità : 
Base nubi : 
>= 8 km
>= 3000ft
5 / 8 km
1000 / 3000 ft
1500m / 5 km
500 / 1000 ft
800 / 1500m
200 / 500 ft
< 800m
< 200 ft
Simboli :   Temporali  Nebbia  Neve Forte  Precipitazioni Forti  Vento > 20 kt
SIGMETs :   Varie  Temporali  Ghiacco  Turbolenza  Onda orograficha  Ceneri Vulcaniche






- Altitudine del aeroporto : 170 ft
- Codice IATA : BGO


ENBR - Bergen , Flesland

ULTIMO METAR :
  • 260250Z 13006KT 9999 FEW030 SCT040 BKN060 10/07 Q1030 RMK WIND 1200FT 14019KT

METARs OBSOLETI :
  • 260220Z 13005KT 9999 FEW030 BKN040 09/07 Q1031 RMK WIND 1200FT 14018KT
  • 260150Z 13006KT CAVOK 09/07 Q1031 RMK WIND 1200FT 14017KT
  • 260120Z 13006KT CAVOK 09/07 Q1031 RMK WIND 1200FT 14017KT
  • 260050Z 14007KT CAVOK 09/07 Q1031 RMK WIND 1200FT 14017KT
  • 260020Z 14006KT CAVOK 09/07 Q1031 RMK WIND 1200FT 15015KT

TAF ENBR
Valido dal 26 a 00 ore il 27 a 00 ore UTC


2600/2624 16008KT 9999 FEW020 BKN080
PROB30 2609/2615 4000 RADZ BR BKN008
BECMG 2610/2613 24010KT



MetMap, La meteo Aeronautica in un colpo d'occhio ! - Copyright ORBIFLY Dicembre 2007 - Disclaimer

ORBIFLY MET'MAP TEAM :

Programmazione e sviluppo : Alexandra Zaïnal
Concezione : Baudouin d'Aumeries
Aiuto per la programmazione : Marc-Olivier Méhu
Supporto tecnico e logistico : Manuel Goepfert
Aiuto per la traduzione : Arnaldo La Scala

Contatto : metmap@orbifly.com




FONTI E CREDITI :

   NOAA